Time;durP1;ratioP1;P1;durP2;ratioP2;P2;SDS_P1;SDS_P2;PMS_P1;PMS_P2;Temp;Humidity;BMP_temperature;BMP_pressure;BME280_temperature;BME280_humidity;BME280_pressure;Samples;Min_cycle;Max_cycle;Signal;HPM_P1;HPM_P2
2022/10/27 00:00:55;;;;;;;3.63;1.58;;;16.00;99.90;;;;;;20799917;28;20045;-38
2022/10/27 00:11:03;;;;;;;3.30;1.23;;;15.90;99.90;;;;;;20795343;28;20059;-38
2022/10/27 00:21:16;;;;;;;2.65;1.25;;;15.80;99.90;;;;;;20800521;28;20122;-38
2022/10/27 00:31:19;;;;;;;1.75;0.80;;;15.70;99.90;;;;;;20796008;28;20091;-38
2022/10/27 00:41:34;;;;;;;1.98;1.00;;;15.70;99.90;;;;;;20798667;28;20415;-38
2022/10/27 00:51:39;;;;;;;4.38;1.40;;;15.60;99.90;;;;;;20805703;28;20793;-38
2022/10/27 01:01:44;;;;;;;5.03;1.55;;;15.50;99.90;;;;;;20786993;28;20073;-38
2022/10/27 01:11:45;;;;;;;4.55;1.38;;;15.50;99.90;;;;;;20795964;28;20049;-38
2022/10/27 01:22:07;;;;;;;2.35;1.33;;;15.30;99.90;;;;;;20798610;28;20099;-38
2022/10/27 01:32:37;;;;;;;2.75;1.52;;;15.20;99.90;;;;;;20800311;28;20076;-38
2022/10/27 01:42:45;;;;;;;3.15;1.52;;;15.20;99.90;;;;;;20806333;28;22756;-38
2022/10/27 01:52:48;;;;;;;5.00;1.35;;;15.20;99.90;;;;;;20816912;28;20080;-38
2022/10/27 02:03:00;;;;;;;3.55;1.92;;;15.10;99.90;;;;;;20811075;28;20125;-38
2022/10/27 02:13:02;;;;;;;4.45;1.60;;;15.00;99.90;;;;;;20813772;28;20553;-38
2022/10/27 02:23:07;;;;;;;3.85;1.38;;;14.90;99.90;;;;;;20813321;28;20088;-38
2022/10/27 02:33:09;;;;;;;2.83;0.88;;;14.90;99.90;;;;;;20810145;28;20111;-38
2022/10/27 02:43:10;;;;;;;4.95;1.83;;;14.90;99.90;;;;;;20791468;28;20069;-38
2022/10/27 02:53:11;;;;;;;5.38;1.20;;;14.90;99.90;;;;;;20801411;28;20080;-38
2022/10/27 03:03:12;;;;;;;2.50;0.90;;;14.80;99.90;;;;;;20795299;28;20055;-38
2022/10/27 03:13:13;;;;;;;3.30;1.77;;;14.70;99.90;;;;;;20799471;28;20049;-38
2022/10/27 03:23:14;;;;;;;2.50;1.00;;;14.60;99.90;;;;;;20801965;28;20064;-38
2022/10/27 03:33:15;;;;;;;7.85;1.95;;;14.60;99.90;;;;;;20800776;28;20044;-38
2022/10/27 03:43:16;;;;;;;2.15;0.80;;;14.60;99.90;;;;;;20797510;28;20083;-38
2022/10/27 03:53:18;;;;;;;3.33;0.95;;;14.80;99.90;;;;;;20780895;28;20546;-38
2022/10/27 04:03:19;;;;;;;3.70;1.33;;;14.80;99.90;;;;;;20802939;28;20077;-38
2022/10/27 04:13:20;;;;;;;5.13;1.85;;;14.80;99.90;;;;;;20792131;28;20049;-38
2022/10/27 04:23:21;;;;;;;4.63;2.10;;;14.80;99.90;;;;;;20792384;28;20132;-38
2022/10/27 04:33:22;;;;;;;3.70;1.45;;;14.90;99.90;;;;;;20808780;28;20045;-38
2022/10/27 04:43:23;;;;;;;7.72;1.45;;;14.90;99.90;;;;;;20796988;28;21180;-38
2022/10/27 04:53:24;;;;;;;4.70;1.83;;;14.80;99.90;;;;;;20801341;28;20061;-39
2022/10/27 05:03:25;;;;;;;2.47;0.85;;;14.80;99.90;;;;;;20799391;28;20159;-39
2022/10/27 05:13:26;;;;;;;3.63;1.30;;;15.00;99.90;;;;;;20778559;28;20049;-39
2022/10/27 05:23:27;;;;;;;3.95;1.58;;;15.10;99.90;;;;;;20803633;28;20053;-39
2022/10/27 05:33:28;;;;;;;1.42;0.70;;;15.00;99.90;;;;;;20791922;28;20250;-38
2022/10/27 05:43:29;;;;;;;3.30;1.08;;;14.90;99.90;;;;;;20788809;28;20178;-39
2022/10/27 05:53:30;;;;;;;3.22;1.27;;;14.90;99.90;;;;;;20801918;28;20067;-39
2022/10/27 06:03:31;;;;;;;2.75;0.80;;;14.80;99.90;;;;;;20792383;28;20501;-39
2022/10/27 06:13:32;;;;;;;1.50;0.82;;;14.80;99.90;;;;;;20793762;28;21025;-39
2022/10/27 06:23:33;;;;;;;2.60;0.73;;;14.80;99.90;;;;;;20811857;28;20496;-39
2022/10/27 06:33:34;;;;;;;2.33;1.23;;;14.80;99.90;;;;;;20810859;28;20090;-38
2022/10/27 06:43:35;;;;;;;1.65;0.55;;;14.70;99.90;;;;;;20810599;28;20102;-39
2022/10/27 06:53:36;;;;;;;2.42;1.15;;;14.60;99.90;;;;;;20809102;28;20029;-38
2022/10/27 07:03:37;;;;;;;2.40;1.05;;;14.40;99.90;;;;;;20800800;28;20073;-39
2022/10/27 07:13:38;;;;;;;2.35;1.17;;;14.40;99.90;;;;;;20806724;28;20049;-38
2022/10/27 07:23:39;;;;;;;4.93;0.90;;;14.50;99.90;;;;;;20809486;28;20737;-38
2022/10/27 07:33:40;;;;;;;4.35;1.83;;;14.60;99.90;;;;;;20804005;28;20439;-38
2022/10/27 07:43:41;;;;;;;2.08;1.13;;;14.80;99.90;;;;;;20811518;28;20060;-38
2022/10/27 07:53:42;;;;;;;3.03;1.10;;;14.80;99.90;;;;;;20788123;28;20144;-38
2022/10/27 08:03:43;;;;;;;2.17;1.00;;;14.90;99.90;;;;;;20799767;28;20067;-39
2022/10/27 08:13:44;;;;;;;2.72;1.23;;;15.20;99.90;;;;;;20775772;28;20046;-40
2022/10/27 08:23:45;;;;;;;1.95;1.08;;;15.50;99.90;;;;;;20796099;28;20573;-39
2022/10/27 08:33:46;;;;;;;2.92;1.40;;;15.60;99.90;;;;;;20790013;28;20389;-39
2022/10/27 08:44:02;;;;;;;8.05;1.50;;;16.00;99.90;;;;;;20794746;28;20489;-39
2022/10/27 08:54:04;;;;;;;3.15;1.15;;;16.10;99.90;;;;;;20784018;28;20049;-39
2022/10/27 09:04:27;;;;;;;1.77;0.82;;;16.40;99.90;;;;;;20801582;28;20054;-39
2022/10/27 09:15:06;;;;;;;1.88;0.90;;;16.60;99.90;;;;;;20778387;28;22953;-39
2022/10/27 09:25:15;;;;;;;1.57;0.83;;;16.60;99.90;;;;;;20785295;28;20844;-39
2022/10/27 09:35:24;;;;;;;2.75;0.80;;;16.60;99.90;;;;;;20788858;28;20476;-40
2022/10/27 09:45:27;;;;;;;3.38;0.82;;;16.80;99.90;;;;;;20794809;28;20767;-39
2022/10/27 09:55:49;;;;;;;6.60;0.52;;;16.90;99.90;;;;;;20792787;28;20033;-40
2022/10/27 10:06:04;;;;;;;2.35;1.05;;;17.30;99.90;;;;;;20800701;28;20620;-39
2022/10/27 10:16:10;;;;;;;0.70;0.30;;;17.50;99.90;;;;;;20813154;28;20049;-39
2022/10/27 10:26:34;;;;;;;1.73;1.20;;;17.50;99.90;;;;;;20810278;28;20049;-39
2022/10/27 10:36:39;;;;;;;1.17;0.65;;;17.50;99.90;;;;;;20834346;28;20874;-40
2022/10/27 10:46:53;;;;;;;1.90;0.98;;;17.60;99.90;;;;;;20815379;28;20063;-39
2022/10/27 10:56:55;;;;;;;2.00;0.57;;;17.70;99.90;;;;;;20816322;28;20052;-39
2022/10/27 11:06:56;;;;;;;1.70;0.82;;;17.80;99.90;;;;;;20802718;28;20119;-39
2022/10/27 11:17:01;;;;;;;1.55;0.88;;;17.90;99.90;;;;;;20807015;28;20148;-40
2022/10/27 11:27:21;;;;;;;1.27;0.60;;;18.10;99.90;;;;;;20792012;28;20152;-39
2022/10/27 11:37:48;;;;;;;1.58;0.40;;;18.40;99.90;;;;;;20814355;28;20069;-39
2022/10/27 11:47:55;;;;;;;1.98;0.70;;;18.30;99.90;;;;;;20813162;28;21857;-39
2022/10/27 11:58:10;;;;;;;1.38;0.47;;;18.30;99.90;;;;;;20807235;28;20580;-39
2022/10/27 12:08:38;;;;;;;3.20;1.38;;;18.40;99.90;;;;;;20803622;28;20467;-39
2022/10/27 12:18:39;;;;;;;2.13;0.50;;;18.40;99.90;;;;;;20811755;28;20871;-39
2022/10/27 12:28:41;;;;;;;1.52;0.40;;;18.40;99.90;;;;;;20823382;28;20570;-39
2022/10/27 12:39:00;;;;;;;1.65;0.50;;;18.90;99.90;;;;;;20805001;28;20155;-39
2022/10/27 12:49:09;;;;;;;1.20;0.40;;;19.00;99.90;;;;;;20811422;28;20053;-39
2022/10/27 12:59:19;;;;;;;1.50;0.53;;;19.20;99.90;;;;;;20800612;28;20103;-39
2022/10/27 13:09:20;;;;;;;1.80;0.90;;;19.10;99.90;;;;;;20791060;28;20057;-39
2022/10/27 13:19:38;;;;;;;1.52;0.57;;;19.10;99.90;;;;;;20804282;28;20042;-39
2022/10/27 13:29:51;;;;;;;1.52;0.43;;;19.00;99.90;;;;;;20806042;28;20877;-40
2022/10/27 13:39:52;;;;;;;1.90;0.70;;;19.10;99.90;;;;;;20830846;28;20117;-39
2022/10/27 13:49:54;;;;;;;2.75;1.15;;;19.10;99.90;;;;;;20815944;28;20041;-40
2022/10/27 14:00:04;;;;;;;9.18;1.30;;;19.30;99.90;;;;;;20814834;28;20099;-40
2022/10/27 14:10:12;;;;;;;1.60;0.65;;;19.80;99.90;;;;;;20824297;28;20103;-39
2022/10/27 14:20:26;;;;;;;2.35;0.40;;;20.40;99.90;;;;;;20810188;28;20107;-40
2022/10/27 14:30:28;;;;;;;8.57;0.73;;;20.60;99.90;;;;;;20804241;28;20282;-40
2022/10/27 14:40:35;;;;;;;2.55;0.90;;;20.70;99.90;;;;;;20805303;28;20494;-40
2022/10/27 14:50:40;;;;;;;2.00;0.50;;;20.50;99.90;;;;;;20808720;28;20878;-40
2022/10/27 15:00:41;;;;;;;1.17;0.40;;;20.30;99.90;;;;;;20805989;28;20542;-39
2022/10/27 15:10:45;;;;;;;6.22;1.65;;;20.10;99.90;;;;;;20805598;28;20890;-40
2022/10/27 15:20:48;;;;;;;1.33;0.57;;;19.80;99.90;;;;;;20801867;28;20046;-39
2022/10/27 15:30:49;;;;;;;1.77;0.40;;;19.70;99.90;;;;;;20811699;28;20107;-40
2022/10/27 15:40:50;;;;;;;1.63;0.65;;;19.70;99.90;;;;;;20812492;28;20575;-39
2022/10/27 15:51:09;;;;;;;3.08;0.90;;;19.70;99.90;;;;;;20802417;28;20053;-39
2022/10/27 16:01:29;;;;;;;1.42;0.77;;;19.50;99.90;;;;;;20809701;28;20060;-39
2022/10/27 16:11:39;;;;;;;2.80;0.70;;;19.40;99.90;;;;;;20815702;28;21782;-40
2022/10/27 16:21:40;;;;;;;2.60;1.08;;;19.20;99.90;;;;;;20809007;28;20840;-39
2022/10/27 16:31:41;;;;;;;1.27;0.55;;;19.10;99.90;;;;;;20782963;28;20044;-40
2022/10/27 16:41:43;;;;;;;1.45;0.63;;;19.00;99.90;;;;;;20797632;28;20099;-40
2022/10/27 16:51:44;;;;;;;2.03;0.75;;;18.70;99.90;;;;;;20787882;28;20081;-39
2022/10/27 17:01:45;;;;;;;3.83;1.05;;;18.60;99.90;;;;;;20789924;28;20037;-39
2022/10/27 17:11:46;;;;;;;2.65;0.80;;;18.50;99.90;;;;;;20802399;28;20439;-39
2022/10/27 17:21:48;;;;;;;4.65;1.52;;;18.30;99.90;;;;;;20789659;28;20046;-39
2022/10/27 17:31:48;;;;;;;1.48;0.60;;;18.20;99.90;;;;;;20805100;28;20050;-39
2022/10/27 17:41:49;;;;;;;2.97;1.52;;;18.10;99.90;;;;;;20784045;28;20049;-39
2022/10/27 17:51:50;;;;;;;6.22;1.70;;;17.90;99.90;;;;;;20797134;28;20064;-39
2022/10/27 18:01:51;;;;;;;2.50;1.00;;;18.00;99.90;;;;;;20792046;28;20045;-40
2022/10/27 18:11:52;;;;;;;1.80;0.95;;;17.90;99.90;;;;;;20787501;28;20050;-39
2022/10/27 18:21:54;;;;;;;13.45;2.20;;;17.90;99.90;;;;;;20806881;28;20059;-39
2022/10/27 18:31:55;;;;;;;3.20;1.25;;;17.80;99.90;;;;;;20800225;28;20102;-40
2022/10/27 18:41:56;;;;;;;3.47;1.58;;;17.70;99.90;;;;;;20805558;28;20057;-40
2022/10/27 18:51:57;;;;;;;2.92;1.02;;;17.60;99.90;;;;;;20797564;28;20054;-40
2022/10/27 19:01:58;;;;;;;3.47;1.30;;;17.50;99.90;;;;;;20800113;28;20049;-40
2022/10/27 19:11:59;;;;;;;5.35;1.30;;;17.50;99.90;;;;;;20812808;28;20049;-40
2022/10/27 19:22:00;;;;;;;2.30;1.40;;;17.40;99.90;;;;;;20776592;28;20048;-40
2022/10/27 19:32:01;;;;;;;4.10;1.48;;;17.40;99.90;;;;;;20809206;28;20102;-39
2022/10/27 19:42:02;;;;;;;3.80;1.67;;;17.40;99.90;;;;;;20797231;28;20265;-40
2022/10/27 19:52:03;;;;;;;5.65;1.80;;;17.40;99.90;;;;;;20805654;28;20099;-39
2022/10/27 20:02:05;;;;;;;4.57;1.35;;;17.30;99.90;;;;;;20805828;28;20053;-39
2022/10/27 20:12:07;;;;;;;2.97;1.10;;;17.50;99.90;;;;;;20806794;28;20655;-40
2022/10/27 20:22:07;;;;;;;3.53;1.55;;;17.60;99.90;;;;;;20779020;28;20056;-40
2022/10/27 20:32:09;;;;;;;3.95;1.50;;;17.70;99.90;;;;;;20791997;28;21073;-40
2022/10/27 20:42:10;;;;;;;4.03;1.60;;;17.70;99.90;;;;;;20799331;28;20103;-39
2022/10/27 20:52:11;;;;;;;4.90;1.27;;;17.60;99.90;;;;;;20812393;28;20574;-39
2022/10/27 21:02:12;;;;;;;4.35;1.67;;;17.50;99.90;;;;;;20807705;28;20448;-39
2022/10/27 21:12:13;;;;;;;6.55;2.05;;;17.50;99.90;;;;;;20811638;28;20049;-40
2022/10/27 21:22:14;;;;;;;2.95;1.30;;;17.50;99.90;;;;;;20810819;28;20038;-40
2022/10/27 21:32:15;;;;;;;3.03;1.30;;;17.40;99.90;;;;;;20816120;28;20053;-40
2022/10/27 21:42:16;;;;;;;5.88;1.88;;;17.30;99.90;;;;;;20795195;28;20052;-40
2022/10/27 21:52:17;;;;;;;2.97;1.15;;;17.30;99.90;;;;;;20795559;28;20056;-40
2022/10/27 22:02:18;;;;;;;3.70;2.10;;;17.30;99.90;;;;;;20818610;28;20041;-40
2022/10/27 22:12:19;;;;;;;3.58;1.63;;;17.20;99.90;;;;;;20816788;28;20041;-40
2022/10/27 22:22:20;;;;;;;4.60;1.70;;;17.20;99.90;;;;;;20809633;28;20049;-40
2022/10/27 22:32:21;;;;;;;3.78;1.10;;;17.30;99.90;;;;;;20809677;28;20632;-40
2022/10/27 22:42:23;;;;;;;2.80;1.80;;;17.30;99.90;;;;;;20807791;28;20514;-39
2022/10/27 22:52:24;;;;;;;3.92;1.60;;;17.20;99.90;;;;;;20803829;28;20091;-39
2022/10/27 23:02:24;;;;;;;15.10;2.03;;;17.10;99.90;;;;;;20816095;28;20889;-39
2022/10/27 23:12:26;;;;;;;6.15;2.35;;;17.00;99.90;;;;;;20806580;28;20061;-39
2022/10/27 23:22:27;;;;;;;2.60;1.17;;;16.90;99.90;;;;;;20806804;28;20100;-39
2022/10/27 23:32:28;;;;;;;3.70;1.77;;;16.80;99.90;;;;;;20804460;28;20095;-39
2022/10/27 23:42:29;;;;;;;7.10;2.13;;;16.60;99.90;;;;;;20800451;28;20041;-39
2022/10/27 23:52:30;;;;;;;2.47;1.13;;;16.50;99.90;;;;;;20797543;28;20061;-39
